PWSweather.com
Personal Weather Stations
Station Observations
BNUMANCIA
BarcelonaES 08029

BarcelonaES 08029

Lat: 41.3855863, Lon: 2.1367624

Elevation: 46

Station Type: WMR180

High Low Average
Temperature 68.7°F20.4°F 54.0°F12.2°F 59.7°F15.4°F
Dew Point 53.6°F12.0°F 45.9°F7.7°F 49.7°F9.8°F
Winds 8.1 mph W13.0 mph W Calm Calm 1.4 mph 2.3 mph
Wind Gusts 10.7 mph17.2 mph -- 2.4 mph3.9 mph
Humidity 90% 46% 71%
Pressure 29.85 in1010.80 in 29.56 in1001.00 in -
Precipitation 0.00 in0.00 in - -
Hour Temp Dew Point Humidity Winds Wind Gusts Pressure Precip Precip Rate Daily Precip Total
12:00 AM 54.3°F12.4°C 49.9°F9.9°C 85% 1.6 mph SSW2.6 kmh SSW 2.0 mph3.2 kmh 29.85 in1010.8 mb 0.00 in0.0 mm 0.00 in0.0 mm 0.00 in0.0 mm
12:04 AM 54.3°F12.4°C 49.6°F9.8°C 84% 1.6 mph SSW2.6 kmh SSW 1.6 mph2.6 kmh 29.85 in1010.8 mb 0.00 in0.0 mm 0.00 in0.0 mm 0.00 in0.0 mm
12:09 AM 54.3°F12.4°C 49.6°F9.8°C 84% Calm Calm 1.6 mph2.6 kmh 29.85 in1010.8 mb 0.00 in0.0 mm 0.00 in0.0 mm 0.00 in0.0 mm
12:14 AM 54.3°F12.4°C 49.6°F9.8°C 84% Calm Calm 2.2 mph3.5 kmh 29.85 in1010.8 mb 0.00 in0.0 mm 0.00 in0.0 mm 0.00 in0.0 mm
12:19 AM 54.3°F12.4°C 49.9°F9.9°C 85% Calm Calm -- 29.85 in1010.8 mb 0.00 in0.0 mm 0.00 in0.0 mm 0.00 in0.0 mm
12:24 AM 54.1°F12.3°C 49.4°F9.7°C 84% Calm Calm -- 29.85 in1010.8 mb 0.00 in0.0 mm 0.00 in0.0 mm 0.00 in0.0 mm
12:29 AM 54.1°F12.3°C 49.4°F9.7°C 84% Calm Calm -- 29.85 in1010.8 mb 0.00 in0.0 mm 0.00 in0.0 mm 0.00 in0.0 mm
12:34 AM 54.0°F12.2°C 49.2°F9.6°C 84% Calm Calm -- 29.85 in1010.8 mb 0.00 in0.0 mm 0.00 in0.0 mm 0.00 in0.0 mm
12:38 AM 54.0°F12.2°C 49.2°F9.6°C 84% Calm Calm -- 29.85 in1010.8 mb 0.00 in0.0 mm 0.00 in0.0 mm 0.00 in0.0 mm
12:44 AM 54.0°F12.2°C 49.6°F9.8°C 85% Calm Calm -- 29.85 in1010.8 mb 0.00 in0.0 mm 0.00 in0.0 mm 0.00 in0.0 mm
12:50 AM 54.1°F12.3°C 49.7°F9.8°C 85% Calm Calm -- 29.85 in1010.8 mb 0.00 in0.0 mm 0.00 in0.0 mm 0.00 in0.0 mm
12:55 AM 54.1°F12.3°C 49.7°F9.8°C 85% 1.3 mph SW2.1 kmh SW 2.2 mph3.5 kmh 29.85 in1010.8 mb 0.00 in0.0 mm 0.00 in0.0 mm 0.00 in0.0 mm
01:00 AM 54.1°F12.3°C 49.7°F9.8°C 85% Calm Calm 1.3 mph2.1 kmh 29.85 in1010.8 mb 0.00 in0.0 mm 0.00 in0.0 mm 0.00 in0.0 mm
01:04 AM 54.1°F12.3°C 50.1°F10.1°C 86% Calm Calm 1.1 mph1.8 kmh 29.85 in1010.8 mb 0.00 in0.0 mm 0.00 in0.0 mm 0.00 in0.0 mm
01:09 AM 54.3°F12.4°C 50.2°F10.1°C 86% 3.4 mph NE5.5 kmh NE 3.4 mph5.5 kmh 29.85 in1010.8 mb 0.00 in0.0 mm 0.00 in0.0 mm 0.00 in0.0 mm
01:14 AM 54.3°F12.4°C 50.2°F10.1°C 86% Calm Calm 2.5 mph4.0 kmh 29.85 in1010.8 mb 0.00 in0.0 mm 0.00 in0.0 mm 0.00 in0.0 mm
01:19 AM 54.3°F12.4°C 50.2°F10.1°C 86% Calm Calm -- 29.85 in1010.8 mb 0.00 in0.0 mm 0.00 in0.0 mm 0.00 in0.0 mm
01:24 AM 54.3°F12.4°C 50.2°F10.1°C 86% Calm Calm -- 29.85 in1010.8 mb 0.00 in0.0 mm 0.00 in0.0 mm 0.00 in0.0 mm
01:29 AM 54.3°F12.4°C 50.2°F10.1°C 86% Calm Calm -- 29.85 in1010.8 mb 0.00 in0.0 mm 0.00 in0.0 mm 0.00 in0.0 mm
01:34 AM 54.5°F12.5°C 50.7°F10.4°C 87% Calm Calm 1.6 mph2.6 kmh 29.85 in1010.8 mb 0.00 in0.0 mm 0.00 in0.0 mm 0.00 in0.0 mm
01:39 AM 54.5°F12.5°C 50.7°F10.4°C 87% Calm Calm -- 29.85 in1010.8 mb 0.00 in0.0 mm 0.00 in0.0 mm 0.00 in0.0 mm
01:45 AM 54.5°F12.5°C 50.7°F10.4°C 87% 2.7 mph W4.3 kmh W 2.7 mph4.3 kmh 29.85 in1010.8 mb 0.00 in0.0 mm 0.00 in0.0 mm 0.00 in0.0 mm
01:50 AM 54.5°F12.5°C 50.7°F10.4°C 87% Calm Calm 2.7 mph4.3 kmh 29.85 in1010.8 mb 0.00 in0.0 mm 0.00 in0.0 mm 0.00 in0.0 mm
01:53 AM 54.5°F12.5°C 50.7°F10.4°C 87% Calm Calm -- 29.85 in1010.8 mb 0.00 in0.0 mm 0.00 in0.0 mm 0.00 in0.0 mm
01:59 AM 54.3°F12.4°C 50.5°F10.3°C 87% Calm Calm -- 29.85 in1010.8 mb 0.00 in0.0 mm 0.00 in0.0 mm 0.00 in0.0 mm
02:04 AM 54.5°F12.5°C 50.7°F10.4°C 87% Calm Calm 1.6 mph2.6 kmh 29.85 in1010.8 mb 0.00 in0.0 mm 0.00 in0.0 mm 0.00 in0.0 mm
02:09 AM 54.5°F12.5°C 50.7°F10.4°C 87% Calm Calm -- 29.85 in1010.8 mb 0.00 in0.0 mm 0.00 in0.0 mm 0.00 in0.0 mm
02:14 AM 54.5°F12.5°C 51.0°F10.6°C 88% Calm Calm 2.5 mph4.0 kmh 29.85 in1010.8 mb 0.00 in0.0 mm 0.00 in0.0 mm 0.00 in0.0 mm
02:19 AM 54.7°F12.6°C 51.2°F10.7°C 88% Calm Calm -- 29.85 in1010.8 mb 0.00 in0.0 mm 0.00 in0.0 mm 0.00 in0.0 mm
02:24 AM 54.7°F12.6°C 51.2°F10.7°C 88% Calm Calm -- 29.85 in1010.8 mb 0.00 in0.0 mm 0.00 in0.0 mm 0.00 in0.0 mm
02:29 AM 54.7°F12.6°C 51.2°F10.7°C 88% 1.1 mph NNE1.8 kmh NNE 2.0 mph3.2 kmh 29.85 in1010.8 mb 0.00 in0.0 mm 0.00 in0.0 mm 0.00 in0.0 mm
02:34 AM 54.9°F12.7°C 51.4°F10.8°C 88% Calm Calm -- 29.85 in1010.8 mb 0.00 in0.0 mm 0.00 in0.0 mm 0.00 in0.0 mm
02:39 AM 54.7°F12.6°C 50.9°F10.5°C 87% Calm Calm -- 29.85 in1010.8 mb 0.00 in0.0 mm 0.00 in0.0 mm 0.00 in0.0 mm
02:45 AM 54.7°F12.6°C 50.9°F10.5°C 87% Calm Calm -- 29.85 in1010.8 mb 0.00 in0.0 mm 0.00 in0.0 mm 0.00 in0.0 mm
02:50 AM 54.7°F12.6°C 50.9°F10.5°C 87% Calm Calm -- 29.85 in1010.8 mb 0.00 in0.0 mm 0.00 in0.0 mm 0.00 in0.0 mm
02:54 AM 54.7°F12.6°C 50.9°F10.5°C 87% Calm Calm -- 29.85 in1010.8 mb 0.00 in0.0 mm 0.00 in0.0 mm 0.00 in0.0 mm
02:58 AM 54.7°F12.6°C 50.9°F10.5°C 87% Calm Calm -- 29.85 in1010.8 mb 0.00 in0.0 mm 0.00 in0.0 mm 0.00 in0.0 mm
03:04 AM 54.7°F12.6°C 50.9°F10.5°C 87% Calm Calm -- 29.85 in1010.8 mb 0.00 in0.0 mm 0.00 in0.0 mm 0.00 in0.0 mm
03:09 AM 54.9°F12.7°C 51.4°F10.8°C 88% Calm Calm 2.2 mph3.5 kmh 29.85 in1010.8 mb 0.00 in0.0 mm 0.00 in0.0 mm 0.00 in0.0 mm
03:14 AM 54.7°F12.6°C 50.9°F10.5°C 87% Calm Calm -- 29.85 in1010.8 mb 0.00 in0.0 mm 0.00 in0.0 mm 0.00 in0.0 mm
03:19 AM 54.7°F12.6°C 50.9°F10.5°C 87% Calm Calm -- 29.85 in1010.8 mb 0.00 in0.0 mm 0.00 in0.0 mm 0.00 in0.0 mm
03:24 AM 54.7°F12.6°C 50.9°F10.5°C 87% Calm Calm -- 29.85 in1010.8 mb 0.00 in0.0 mm 0.00 in0.0 mm 0.00 in0.0 mm
03:29 AM 54.7°F12.6°C 50.9°F10.5°C 87% Calm Calm -- 29.82 in1009.8 mb 0.00 in0.0 mm 0.00 in0.0 mm 0.00 in0.0 mm
03:35 AM 54.7°F12.6°C 50.9°F10.5°C 87% Calm Calm 1.3 mph2.1 kmh 29.82 in1009.8 mb 0.00 in0.0 mm 0.00 in0.0 mm 0.00 in0.0 mm
03:40 AM 54.7°F12.6°C 50.9°F10.5°C 87% Calm Calm -- 29.82 in1009.8 mb 0.00 in0.0 mm 0.00 in0.0 mm 0.00 in0.0 mm
03:45 AM 54.5°F12.5°C 50.7°F10.4°C 87% Calm Calm -- 29.82 in1009.8 mb 0.00 in0.0 mm 0.00 in0.0 mm 0.00 in0.0 mm
03:50 AM 54.7°F12.6°C 50.9°F10.5°C 87% Calm Calm -- 29.82 in1009.8 mb 0.00 in0.0 mm 0.00 in0.0 mm 0.00 in0.0 mm
03:54 AM 54.7°F12.6°C 51.2°F10.7°C 88% Calm Calm -- 29.82 in1009.8 mb 0.00 in0.0 mm 0.00 in0.0 mm 0.00 in0.0 mm
03:59 AM 54.7°F12.6°C 51.2°F10.7°C 88% Calm Calm -- 29.79 in1008.8 mb 0.00 in0.0 mm 0.00 in0.0 mm 0.00 in0.0 mm
04:04 AM 54.5°F12.5°C 51.0°F10.6°C 88% Calm Calm -- 29.79 in1008.8 mb 0.00 in0.0 mm 0.00 in0.0 mm 0.00 in0.0 mm
04:09 AM 54.5°F12.5°C 51.0°F10.6°C 88% Calm Calm -- 29.79 in1008.8 mb 0.00 in0.0 mm 0.00 in0.0 mm 0.00 in0.0 mm
04:14 AM 54.5°F12.5°C 51.0°F10.6°C 88% Calm Calm -- 29.79 in1008.8 mb 0.00 in0.0 mm 0.00 in0.0 mm 0.00 in0.0 mm
04:19 AM 54.5°F12.5°C 51.0°F10.6°C 88% Calm Calm -- 29.79 in1008.8 mb 0.00 in0.0 mm 0.00 in0.0 mm 0.00 in0.0 mm
04:24 AM 54.5°F12.5°C 51.0°F10.6°C 88% Calm Calm -- 29.79 in1008.8 mb 0.00 in0.0 mm 0.00 in0.0 mm 0.00 in0.0 mm
04:29 AM 54.7°F12.6°C 51.2°F10.7°C 88% 1.1 mph WNW1.8 kmh WNW 2.2 mph3.5 kmh 29.79 in1008.8 mb 0.00 in0.0 mm 0.00 in0.0 mm 0.00 in0.0 mm
04:34 AM 54.7°F12.6°C 51.5°F10.8°C 89% 1.3 mph W2.1 kmh W 2.0 mph3.2 kmh 29.79 in1008.8 mb 0.00 in0.0 mm 0.00 in0.0 mm 0.00 in0.0 mm
04:40 AM 54.7°F12.6°C 51.5°F10.8°C 89% 1.6 mph W2.6 kmh W 1.6 mph2.6 kmh 29.79 in1008.8 mb 0.00 in0.0 mm 0.00 in0.0 mm 0.00 in0.0 mm
04:45 AM 54.7°F12.6°C 51.5°F10.8°C 89% Calm Calm 1.6 mph2.6 kmh 29.79 in1008.8 mb 0.00 in0.0 mm 0.00 in0.0 mm 0.00 in0.0 mm
04:50 AM 54.7°F12.6°C 51.5°F10.8°C 89% Calm Calm -- 29.79 in1008.8 mb 0.00 in0.0 mm 0.00 in0.0 mm 0.00 in0.0 mm
04:53 AM 54.7°F12.6°C 51.5°F10.8°C 89% Calm Calm -- 29.79 in1008.8 mb 0.00 in0.0 mm 0.00 in0.0 mm 0.00 in0.0 mm
04:59 AM 54.5°F12.5°C 51.3°F10.7°C 89% Calm Calm 1.1 mph1.8 kmh 29.79 in1008.8 mb 0.00 in0.0 mm 0.00 in0.0 mm 0.00 in0.0 mm
05:04 AM 54.5°F12.5°C 51.3°F10.7°C 89% 0.9 mph W1.4 kmh W 2.7 mph4.3 kmh 29.79 in1008.8 mb 0.00 in0.0 mm 0.00 in0.0 mm 0.00 in0.0 mm
05:09 AM 54.7°F12.6°C 51.5°F10.8°C 89% Calm Calm -- 29.79 in1008.8 mb 0.00 in0.0 mm 0.00 in0.0 mm 0.00 in0.0 mm
05:14 AM 54.5°F12.5°C 51.3°F10.7°C 89% Calm Calm -- 29.79 in1008.8 mb 0.00 in0.0 mm 0.00 in0.0 mm 0.00 in0.0 mm
05:19 AM 54.5°F12.5°C 51.3°F10.7°C 89% Calm Calm -- 29.79 in1008.8 mb 0.00 in0.0 mm 0.00 in0.0 mm 0.00 in0.0 mm
05:24 AM 54.5°F12.5°C 51.3°F10.7°C 89% Calm Calm -- 29.79 in1008.8 mb 0.00 in0.0 mm 0.00 in0.0 mm 0.00 in0.0 mm
05:29 AM 54.5°F12.5°C 51.3°F10.7°C 89% Calm Calm -- 29.79 in1008.8 mb 0.00 in0.0 mm 0.00 in0.0 mm 0.00 in0.0 mm
05:35 AM 54.5°F12.5°C 51.3°F10.7°C 89% Calm Calm -- 29.79 in1008.8 mb 0.00 in0.0 mm 0.00 in0.0 mm 0.00 in0.0 mm
05:40 AM 54.7°F12.6°C 51.8°F11.0°C 90% Calm Calm -- 29.79 in1008.8 mb 0.00 in0.0 mm 0.00 in0.0 mm 0.00 in0.0 mm
05:45 AM 54.7°F12.6°C 51.8°F11.0°C 90% Calm Calm -- 29.76 in1007.8 mb 0.00 in0.0 mm 0.00 in0.0 mm 0.00 in0.0 mm
05:50 AM 54.5°F12.5°C 51.3°F10.7°C 89% Calm Calm -- 29.76 in1007.8 mb 0.00 in0.0 mm 0.00 in0.0 mm 0.00 in0.0 mm
05:54 AM 54.5°F12.5°C 51.6°F10.9°C 90% Calm Calm -- 29.76 in1007.8 mb 0.00 in0.0 mm 0.00 in0.0 mm 0.00 in0.0 mm
05:59 AM 54.5°F12.5°C 51.6°F10.9°C 90% Calm Calm -- 29.76 in1007.8 mb 0.00 in0.0 mm 0.00 in0.0 mm 0.00 in0.0 mm
06:04 AM 54.5°F12.5°C 51.6°F10.9°C 90% 2.0 mph W3.2 kmh W 2.0 mph3.2 kmh 29.76 in1007.8 mb 0.00 in0.0 mm 0.00 in0.0 mm 0.00 in0.0 mm
06:09 AM 54.7°F12.6°C 51.8°F11.0°C 90% 2.7 mph W4.3 kmh W 2.7 mph4.3 kmh 29.76 in1007.8 mb 0.00 in0.0 mm 0.00 in0.0 mm 0.00 in0.0 mm
06:14 AM 54.7°F12.6°C 51.8°F11.0°C 90% 2.5 mph W4.0 kmh W 2.7 mph4.3 kmh 29.76 in1007.8 mb 0.00 in0.0 mm 0.00 in0.0 mm 0.00 in0.0 mm
06:19 AM 54.7°F12.6°C 51.8°F11.0°C 90% Calm Calm 2.7 mph4.3 kmh 29.76 in1007.8 mb 0.00 in0.0 mm 0.00 in0.0 mm 0.00 in0.0 mm
06:24 AM 54.9°F12.7°C 52.0°F11.1°C 90% Calm Calm -- 29.76 in1007.8 mb 0.00 in0.0 mm 0.00 in0.0 mm 0.00 in0.0 mm
06:29 AM 54.7°F12.6°C 51.8°F11.0°C 90% Calm Calm -- 29.76 in1007.8 mb 0.00 in0.0 mm 0.00 in0.0 mm 0.00 in0.0 mm
06:35 AM 54.7°F12.6°C 51.5°F10.8°C 89% Calm Calm 1.1 mph1.8 kmh 29.76 in1007.8 mb 0.00 in0.0 mm 0.00 in0.0 mm 0.00 in0.0 mm
06:40 AM 54.7°F12.6°C 51.5°F10.8°C 89% Calm Calm -- 29.76 in1007.8 mb 0.00 in0.0 mm 0.00 in0.0 mm 0.00 in0.0 mm
06:45 AM 54.5°F12.5°C 51.3°F10.7°C 89% 2.5 mph W4.0 kmh W 2.5 mph4.0 kmh 29.71 in1006.1 mb 0.00 in0.0 mm 0.00 in0.0 mm 0.00 in0.0 mm
06:49 AM 54.5°F12.5°C 51.3°F10.7°C 89% Calm Calm 2.5 mph4.0 kmh 29.71 in1006.1 mb 0.00 in0.0 mm 0.00 in0.0 mm 0.00 in0.0 mm
06:54 AM 54.5°F12.5°C 51.3°F10.7°C 89% 1.1 mph NW1.8 kmh NW 2.0 mph3.2 kmh 29.71 in1006.1 mb 0.00 in0.0 mm 0.00 in0.0 mm 0.00 in0.0 mm
06:59 AM 54.5°F12.5°C 51.3°F10.7°C 89% Calm Calm 2.0 mph3.2 kmh 29.74 in1007.1 mb 0.00 in0.0 mm 0.00 in0.0 mm 0.00 in0.0 mm
07:03 AM 54.5°F12.5°C 51.3°F10.7°C 89% Calm Calm -- 29.74 in1007.1 mb 0.00 in0.0 mm 0.00 in0.0 mm 0.00 in0.0 mm
07:08 AM 54.5°F12.5°C 51.3°F10.7°C 89% Calm Calm -- 29.74 in1007.1 mb 0.00 in0.0 mm 0.00 in0.0 mm 0.00 in0.0 mm
07:14 AM 54.7°F12.6°C 51.5°F10.8°C 89% 1.1 mph NE1.8 kmh NE 1.1 mph1.8 kmh 29.74 in1007.1 mb 0.00 in0.0 mm 0.00 in0.0 mm 0.00 in0.0 mm
07:19 AM 54.7°F12.6°C 51.2°F10.7°C 88% Calm Calm -- 29.74 in1007.1 mb 0.00 in0.0 mm 0.00 in0.0 mm 0.00 in0.0 mm
07:24 AM 54.7°F12.6°C 51.2°F10.7°C 88% Calm Calm -- 29.74 in1007.1 mb 0.00 in0.0 mm 0.00 in0.0 mm 0.00 in0.0 mm
07:29 AM 54.7°F12.6°C 51.2°F10.7°C 88% Calm Calm 0.9 mph1.4 kmh 29.74 in1007.1 mb 0.00 in0.0 mm 0.00 in0.0 mm 0.00 in0.0 mm
07:35 AM 54.7°F12.6°C 50.9°F10.5°C 87% Calm Calm 0.9 mph1.4 kmh 29.74 in1007.1 mb 0.00 in0.0 mm 0.00 in0.0 mm 0.00 in0.0 mm
07:40 AM 54.7°F12.6°C 50.9°F10.5°C 87% Calm Calm -- 29.74 in1007.1 mb 0.00 in0.0 mm 0.00 in0.0 mm 0.00 in0.0 mm
07:45 AM 54.5°F12.5°C 50.7°F10.4°C 87% Calm Calm -- 29.74 in1007.1 mb 0.00 in0.0 mm 0.00 in0.0 mm 0.00 in0.0 mm
07:49 AM 54.5°F12.5°C 50.7°F10.4°C 87% Calm Calm -- 29.74 in1007.1 mb 0.00 in0.0 mm 0.00 in0.0 mm 0.00 in0.0 mm
07:54 AM 54.5°F12.5°C 50.4°F10.2°C 86% Calm Calm -- 29.74 in1007.1 mb 0.00 in0.0 mm 0.00 in0.0 mm 0.00 in0.0 mm
07:59 AM 54.5°F12.5°C 50.4°F10.2°C 86% Calm Calm 2.5 mph4.0 kmh 29.74 in1007.1 mb 0.00 in0.0 mm 0.00 in0.0 mm 0.00 in0.0 mm
08:04 AM 54.5°F12.5°C 50.1°F10.1°C 85% Calm Calm 2.5 mph4.0 kmh 29.74 in1007.1 mb 0.00 in0.0 mm 0.00 in0.0 mm 0.00 in0.0 mm
08:09 AM 54.5°F12.5°C 49.8°F9.9°C 84% Calm Calm 3.4 mph5.5 kmh 29.74 in1007.1 mb 0.00 in0.0 mm 0.00 in0.0 mm 0.00 in0.0 mm
08:14 AM 54.7°F12.6°C 49.6°F9.8°C 83% Calm Calm 2.2 mph3.5 kmh 29.74 in1007.1 mb 0.00 in0.0 mm 0.00 in0.0 mm 0.00 in0.0 mm
08:19 AM 54.7°F12.6°C 49.3°F9.6°C 82% 1.6 mph W2.6 kmh W 3.1 mph5.0 kmh 29.74 in1007.1 mb 0.00 in0.0 mm 0.00 in0.0 mm 0.00 in0.0 mm
08:24 AM 54.7°F12.6°C 49.0°F9.4°C 81% 3.4 mph WSW5.5 kmh WSW 3.4 mph5.5 kmh 29.74 in1007.1 mb 0.00 in0.0 mm 0.00 in0.0 mm 0.00 in0.0 mm
08:29 AM 54.9°F12.7°C 49.2°F9.6°C 81% Calm Calm 3.4 mph5.5 kmh 29.74 in1007.1 mb 0.00 in0.0 mm 0.00 in0.0 mm 0.00 in0.0 mm
08:35 AM 54.9°F12.7°C 49.2°F9.6°C 81% 1.6 mph W2.6 kmh W 1.6 mph2.6 kmh 29.74 in1007.1 mb 0.00 in0.0 mm 0.00 in0.0 mm 0.00 in0.0 mm
08:40 AM 54.9°F12.7°C 49.2°F9.6°C 81% Calm Calm 2.7 mph4.3 kmh 29.74 in1007.1 mb 0.00 in0.0 mm 0.00 in0.0 mm 0.00 in0.0 mm
08:45 AM 55.0°F12.8°C 49.7°F9.8°C 82% Calm Calm 1.6 mph2.6 kmh 29.74 in1007.1 mb 0.00 in0.0 mm 0.00 in0.0 mm 0.00 in0.0 mm
08:49 AM 55.0°F12.8°C 49.7°F9.8°C 82% 2.9 mph W4.7 kmh W 2.9 mph4.7 kmh 29.74 in1007.1 mb 0.00 in0.0 mm 0.00 in0.0 mm 0.00 in0.0 mm
08:54 AM 55.0°F12.8°C 49.7°F9.8°C 82% 2.5 mph WSW4.0 kmh WSW 2.9 mph4.7 kmh 29.74 in1007.1 mb 0.00 in0.0 mm 0.00 in0.0 mm 0.00 in0.0 mm
08:59 AM 55.0°F12.8°C 49.7°F9.8°C 82% 2.5 mph WSW4.0 kmh WSW 2.5 mph4.0 kmh 29.71 in1006.1 mb 0.00 in0.0 mm 0.00 in0.0 mm 0.00 in0.0 mm
09:04 AM 55.0°F12.8°C 50.0°F10.0°C 83% 2.0 mph WSW3.2 kmh WSW 2.0 mph3.2 kmh 29.71 in1006.1 mb 0.00 in0.0 mm 0.00 in0.0 mm 0.00 in0.0 mm
09:09 AM 55.2°F12.9°C 50.2°F10.1°C 83% Calm Calm -- 29.71 in1006.1 mb 0.00 in0.0 mm 0.00 in0.0 mm 0.00 in0.0 mm
09:14 AM 55.2°F12.9°C 50.2°F10.1°C 83% Calm Calm 3.4 mph5.5 kmh 29.71 in1006.1 mb 0.00 in0.0 mm 0.00 in0.0 mm 0.00 in0.0 mm
09:19 AM 55.4°F13.0°C 50.3°F10.2°C 83% 2.2 mph WSW3.5 kmh WSW 2.2 mph3.5 kmh 29.71 in1006.1 mb 0.00 in0.0 mm 0.00 in0.0 mm 0.00 in0.0 mm
09:24 AM 55.4°F13.0°C 50.3°F10.2°C 83% 2.0 mph W3.2 kmh W 3.1 mph5.0 kmh 29.71 in1006.1 mb 0.00 in0.0 mm 0.00 in0.0 mm 0.00 in0.0 mm
09:29 AM 55.6°F13.1°C 50.5°F10.3°C 83% 2.5 mph W4.0 kmh W 2.5 mph4.0 kmh 29.71 in1006.1 mb 0.00 in0.0 mm 0.00 in0.0 mm 0.00 in0.0 mm
09:35 AM 55.6°F13.1°C 50.2°F10.1°C 82% 2.0 mph W3.2 kmh W 2.5 mph4.0 kmh 29.71 in1006.1 mb 0.00 in0.0 mm 0.00 in0.0 mm 0.00 in0.0 mm
09:40 AM 55.6°F13.1°C 50.2°F10.1°C 82% 1.3 mph W2.1 kmh W 2.7 mph4.3 kmh 29.71 in1006.1 mb 0.00 in0.0 mm 0.00 in0.0 mm 0.00 in0.0 mm
09:45 AM 55.8°F13.2°C 50.4°F10.2°C 82% 1.6 mph W2.6 kmh W 1.6 mph2.6 kmh 29.71 in1006.1 mb 0.00 in0.0 mm 0.00 in0.0 mm 0.00 in0.0 mm
09:49 AM 55.9°F13.3°C 50.5°F10.3°C 82% Calm Calm 1.6 mph2.6 kmh 29.71 in1006.1 mb 0.00 in0.0 mm 0.00 in0.0 mm 0.00 in0.0 mm
09:54 AM 56.1°F13.4°C 50.4°F10.2°C 81% 3.8 mph W6.1 kmh W 3.8 mph6.1 kmh 29.71 in1006.1 mb 0.00 in0.0 mm 0.00 in0.0 mm 0.00 in0.0 mm
09:59 AM 56.1°F13.4°C 49.7°F9.8°C 79% 3.1 mph W5.0 kmh W 3.8 mph6.1 kmh 29.68 in1005.1 mb 0.00 in0.0 mm 0.00 in0.0 mm 0.00 in0.0 mm
10:04 AM 56.1°F13.4°C 49.7°F9.8°C 79% 2.7 mph WSW4.3 kmh WSW 3.1 mph5.0 kmh 29.68 in1005.1 mb 0.00 in0.0 mm 0.00 in0.0 mm 0.00 in0.0 mm
10:09 AM 56.3°F13.5°C 49.5°F9.7°C 78% 0.9 mph W1.4 kmh W 2.7 mph4.3 kmh 29.68 in1005.1 mb 0.00 in0.0 mm 0.00 in0.0 mm 0.00 in0.0 mm
10:14 AM 56.5°F13.6°C 49.7°F9.8°C 78% 1.3 mph W2.1 kmh W 2.2 mph3.5 kmh 29.68 in1005.1 mb 0.00 in0.0 mm 0.00 in0.0 mm 0.00 in0.0 mm
10:19 AM 56.5°F13.6°C 49.4°F9.7°C 77% 1.1 mph W1.8 kmh W 2.7 mph4.3 kmh 29.68 in1005.1 mb 0.00 in0.0 mm 0.00 in0.0 mm 0.00 in0.0 mm
10:24 AM 56.7°F13.7°C 49.2°F9.6°C 76% 0.9 mph W1.4 kmh W 2.7 mph4.3 kmh 29.68 in1005.1 mb 0.00 in0.0 mm 0.00 in0.0 mm 0.00 in0.0 mm
10:30 AM 56.5°F13.6°C 48.7°F9.3°C 75% 1.6 mph W2.6 kmh W 2.9 mph4.7 kmh 29.68 in1005.1 mb 0.00 in0.0 mm 0.00 in0.0 mm 0.00 in0.0 mm
10:35 AM 56.5°F13.6°C 48.3°F9.1°C 74% 3.4 mph W5.5 kmh W 3.8 mph6.1 kmh 29.68 in1005.1 mb 0.00 in0.0 mm 0.00 in0.0 mm 0.00 in0.0 mm
10:40 AM 56.5°F13.6°C 48.3°F9.1°C 74% 1.6 mph W2.6 kmh W 3.4 mph5.5 kmh 29.68 in1005.1 mb 0.00 in0.0 mm 0.00 in0.0 mm 0.00 in0.0 mm
10:44 AM 56.5°F13.6°C 48.3°F9.1°C 74% 2.9 mph W4.7 kmh W 3.8 mph6.1 kmh 29.68 in1005.1 mb 0.00 in0.0 mm 0.00 in0.0 mm 0.00 in0.0 mm
10:49 AM 56.7°F13.7°C 48.1°F8.9°C 73% 2.7 mph W4.3 kmh W 3.8 mph6.1 kmh 29.68 in1005.1 mb 0.00 in0.0 mm 0.00 in0.0 mm 0.00 in0.0 mm
10:54 AM 56.8°F13.8°C 48.3°F9.1°C 73% 3.1 mph WSW5.0 kmh WSW 3.8 mph6.1 kmh 29.68 in1005.1 mb 0.00 in0.0 mm 0.00 in0.0 mm 0.00 in0.0 mm
10:59 AM 57.2°F14.0°C 48.3°F9.1°C 72% Calm Calm 4.3 mph6.9 kmh 29.71 in1006.1 mb 0.00 in0.0 mm 0.00 in0.0 mm 0.00 in0.0 mm
11:04 AM 57.2°F14.0°C 48.3°F9.1°C 72% 3.1 mph W5.0 kmh W 3.1 mph5.0 kmh 29.71 in1006.1 mb 0.00 in0.0 mm 0.00 in0.0 mm 0.00 in0.0 mm
11:09 AM 57.2°F14.0°C 48.3°F9.1°C 72% 2.7 mph WSW4.3 kmh WSW 2.7 mph4.3 kmh 29.71 in1006.1 mb 0.00 in0.0 mm 0.00 in0.0 mm 0.00 in0.0 mm
11:14 AM 57.2°F14.0°C 48.3°F9.1°C 72% 3.4 mph W5.5 kmh W 3.4 mph5.5 kmh 29.68 in1005.1 mb 0.00 in0.0 mm 0.00 in0.0 mm 0.00 in0.0 mm
11:19 AM 57.2°F14.0°C 48.3°F9.1°C 72% 2.9 mph W4.7 kmh W 3.4 mph5.5 kmh 29.68 in1005.1 mb 0.00 in0.0 mm 0.00 in0.0 mm 0.00 in0.0 mm
11:24 AM 57.0°F13.9°C 48.1°F8.9°C 72% 3.6 mph W5.8 kmh W 4.0 mph6.4 kmh 29.68 in1005.1 mb 0.00 in0.0 mm 0.00 in0.0 mm 0.00 in0.0 mm
11:30 AM 57.4°F14.1°C 48.4°F9.1°C 72% 0.9 mph W1.4 kmh W 4.0 mph6.4 kmh 29.68 in1005.1 mb 0.00 in0.0 mm 0.00 in0.0 mm 0.00 in0.0 mm
11:35 AM 57.9°F14.4°C 49.0°F9.4°C 72% 4.0 mph W6.4 kmh W 4.0 mph6.4 kmh 29.68 in1005.1 mb 0.00 in0.0 mm 0.00 in0.0 mm 0.00 in0.0 mm
11:40 AM 57.9°F14.4°C 49.0°F9.4°C 72% 3.1 mph WSW5.0 kmh WSW 4.0 mph6.4 kmh 29.68 in1005.1 mb 0.00 in0.0 mm 0.00 in0.0 mm 0.00 in0.0 mm
11:44 AM 58.1°F14.5°C 49.1°F9.5°C 72% 2.7 mph W4.3 kmh W 4.0 mph6.4 kmh 29.68 in1005.1 mb 0.00 in0.0 mm 0.00 in0.0 mm 0.00 in0.0 mm
11:49 AM 58.5°F14.7°C 49.5°F9.7°C 72% 1.6 mph W2.6 kmh W 3.6 mph5.8 kmh 29.68 in1005.1 mb 0.00 in0.0 mm 0.00 in0.0 mm 0.00 in0.0 mm
11:54 AM 58.6°F14.8°C 49.7°F9.8°C 72% Calm Calm 3.1 mph5.0 kmh 29.68 in1005.1 mb 0.00 in0.0 mm 0.00 in0.0 mm 0.00 in0.0 mm
11:59 AM 59.0°F15.0°C 49.6°F9.8°C 71% 2.7 mph SSW4.3 kmh SSW 2.7 mph4.3 kmh 29.68 in1005.1 mb 0.00 in0.0 mm 0.00 in0.0 mm 0.00 in0.0 mm
12:04 PM 59.5°F15.3°C 50.5°F10.3°C 72% 2.0 mph NW3.2 kmh NW 2.7 mph4.3 kmh 29.68 in1005.1 mb 0.00 in0.0 mm 0.00 in0.0 mm 0.00 in0.0 mm
12:09 PM 60.8°F16.0°C 51.7°F10.9°C 72% 2.2 mph WSW3.5 kmh WSW 3.1 mph5.0 kmh 29.68 in1005.1 mb 0.00 in0.0 mm 0.00 in0.0 mm 0.00 in0.0 mm
12:14 PM 62.2°F16.8°C 52.7°F11.5°C 71% 1.1 mph W1.8 kmh W 3.8 mph6.1 kmh 29.65 in1004.1 mb 0.00 in0.0 mm 0.00 in0.0 mm 0.00 in0.0 mm
12:19 PM 62.2°F16.8°C 52.0°F11.1°C 69% Calm Calm 3.1 mph5.0 kmh 29.65 in1004.1 mb 0.00 in0.0 mm 0.00 in0.0 mm 0.00 in0.0 mm
12:25 PM 61.9°F16.6°C 50.8°F10.4°C 67% 1.6 mph W2.6 kmh W 3.8 mph6.1 kmh 29.65 in1004.1 mb 0.00 in0.0 mm 0.00 in0.0 mm 0.00 in0.0 mm
12:30 PM 62.1°F16.7°C 51.4°F10.8°C 68% 2.2 mph WSW3.5 kmh WSW 2.9 mph4.7 kmh 29.65 in1004.1 mb 0.00 in0.0 mm 0.00 in0.0 mm 0.00 in0.0 mm
12:35 PM 62.4°F16.9°C 51.3°F10.7°C 67% 1.1 mph SSE1.8 kmh SSE 4.3 mph6.9 kmh 29.65 in1004.1 mb 0.00 in0.0 mm 0.00 in0.0 mm 0.00 in0.0 mm
12:39 PM 63.3°F17.4°C 52.2°F11.2°C 67% Calm Calm 3.8 mph6.1 kmh 29.65 in1004.1 mb 0.00 in0.0 mm 0.00 in0.0 mm 0.00 in0.0 mm
12:43 PM 64.6°F18.1°C 53.0°F11.7°C 66% 2.5 mph WSW4.0 kmh WSW 2.5 mph4.0 kmh 29.62 in1003.0 mb 0.00 in0.0 mm 0.00 in0.0 mm 0.00 in0.0 mm
12:49 PM 65.5°F18.6°C 53.0°F11.7°C 64% 1.6 mph N2.6 kmh N 3.4 mph5.5 kmh 29.62 in1003.0 mb 0.00 in0.0 mm 0.00 in0.0 mm 0.00 in0.0 mm
12:54 PM 66.2°F19.0°C 53.3°F11.8°C 63% 2.0 mph W3.2 kmh W 2.2 mph3.5 kmh 29.62 in1003.0 mb 0.00 in0.0 mm 0.00 in0.0 mm 0.00 in0.0 mm
12:59 PM 66.6°F19.2°C 53.6°F12.0°C 63% Calm Calm 2.5 mph4.0 kmh 29.62 in1003.0 mb 0.00 in0.0 mm 0.00 in0.0 mm 0.00 in0.0 mm
01:04 PM 66.9°F19.4°C 53.5°F11.9°C 62% 1.6 mph W2.6 kmh W 1.6 mph2.6 kmh 29.62 in1003.0 mb 0.00 in0.0 mm 0.00 in0.0 mm 0.00 in0.0 mm
01:09 PM 67.5°F19.7°C 53.1°F11.7°C 60% 1.3 mph NE2.1 kmh NE 2.7 mph4.3 kmh 29.62 in1003.0 mb 0.00 in0.0 mm 0.00 in0.0 mm 0.00 in0.0 mm
01:14 PM 68.0°F20.0°C 52.7°F11.5°C 58% 2.2 mph WSW3.5 kmh WSW 3.6 mph5.8 kmh 29.59 in1002.0 mb 0.00 in0.0 mm 0.00 in0.0 mm 0.00 in0.0 mm
01:19 PM 67.6°F19.8°C 51.9°F11.1°C 57% Calm Calm 2.2 mph3.5 kmh 29.59 in1002.0 mb 0.00 in0.0 mm 0.00 in0.0 mm 0.00 in0.0 mm
01:25 PM 67.5°F19.7°C 51.7°F10.9°C 57% 2.2 mph SW3.5 kmh SW 2.2 mph3.5 kmh 29.59 in1002.0 mb 0.00 in0.0 mm 0.00 in0.0 mm 0.00 in0.0 mm
01:30 PM 67.5°F19.7°C 51.7°F10.9°C 57% Calm Calm -- 29.62 in1003.0 mb 0.00 in0.0 mm 0.00 in0.0 mm 0.00 in0.0 mm
01:35 PM 67.3°F19.6°C 50.1°F10.1°C 54% 3.6 mph WSW5.8 kmh WSW 3.6 mph5.8 kmh 29.62 in1003.0 mb 0.00 in0.0 mm 0.00 in0.0 mm 0.00 in0.0 mm
01:40 PM 67.1°F19.5°C 49.4°F9.7°C 53% Calm Calm 3.6 mph5.8 kmh 29.62 in1003.0 mb 0.00 in0.0 mm 0.00 in0.0 mm 0.00 in0.0 mm
01:44 PM 67.1°F19.5°C 49.4°F9.7°C 53% 3.1 mph WSW5.0 kmh WSW 3.6 mph5.8 kmh 29.62 in1003.0 mb 0.00 in0.0 mm 0.00 in0.0 mm 0.00 in0.0 mm
01:49 PM 66.9°F19.4°C 48.2°F9.0°C 51% 1.6 mph WSW2.6 kmh WSW 4.3 mph6.9 kmh 29.62 in1003.0 mb 0.00 in0.0 mm 0.00 in0.0 mm 0.00 in0.0 mm
01:54 PM 66.9°F19.4°C 48.7°F9.3°C 52% 1.1 mph W1.8 kmh W 4.3 mph6.9 kmh 29.62 in1003.0 mb 0.00 in0.0 mm 0.00 in0.0 mm 0.00 in0.0 mm
01:59 PM 66.7°F19.3°C 48.1°F8.9°C 51% Calm Calm 3.4 mph5.5 kmh 29.59 in1002.0 mb 0.00 in0.0 mm 0.00 in0.0 mm 0.00 in0.0 mm
02:04 PM 66.6°F19.2°C 47.9°F8.8°C 51% Calm Calm 2.5 mph4.0 kmh 29.59 in1002.0 mb 0.00 in0.0 mm 0.00 in0.0 mm 0.00 in0.0 mm
02:09 PM 66.6°F19.2°C 47.4°F8.6°C 50% 5.8 mph W9.3 kmh W 5.8 mph9.3 kmh 29.59 in1002.0 mb 0.00 in0.0 mm 0.00 in0.0 mm 0.00 in0.0 mm
02:13 PM 66.7°F19.3°C 47.0°F8.3°C 49% 3.4 mph WSW5.5 kmh WSW 6.5 mph10.5 kmh 29.59 in1002.0 mb 0.00 in0.0 mm 0.00 in0.0 mm 0.00 in0.0 mm
02:19 PM 66.9°F19.4°C 46.6°F8.1°C 48% 3.4 mph WSW5.5 kmh WSW 5.8 mph9.3 kmh 29.59 in1002.0 mb 0.00 in0.0 mm 0.00 in0.0 mm 0.00 in0.0 mm
02:25 PM 67.1°F19.5°C 46.8°F8.2°C 48% 4.7 mph WSW7.6 kmh WSW 5.8 mph9.3 kmh 29.59 in1002.0 mb 0.00 in0.0 mm 0.00 in0.0 mm 0.00 in0.0 mm
02:30 PM 67.5°F19.7°C 47.1°F8.4°C 48% 2.9 mph WSW4.7 kmh WSW 5.8 mph9.3 kmh 29.59 in1002.0 mb 0.00 in0.0 mm 0.00 in0.0 mm 0.00 in0.0 mm
02:35 PM 67.6°F19.8°C 46.7°F8.2°C 47% 2.9 mph WSW4.7 kmh WSW 2.9 mph4.7 kmh 29.59 in1002.0 mb 0.00 in0.0 mm 0.00 in0.0 mm 0.00 in0.0 mm
02:39 PM 67.8°F19.9°C 46.9°F8.3°C 47% 5.4 mph W8.7 kmh W 5.4 mph8.7 kmh 29.59 in1002.0 mb 0.00 in0.0 mm 0.00 in0.0 mm 0.00 in0.0 mm
02:44 PM 68.4°F20.2°C 46.8°F8.2°C 46% 2.5 mph W4.0 kmh W 3.8 mph6.1 kmh 29.59 in1002.0 mb 0.00 in0.0 mm 0.00 in0.0 mm 0.00 in0.0 mm
02:49 PM 68.5°F20.3°C 47.0°F8.3°C 46% 1.1 mph ENE1.8 kmh ENE 2.5 mph4.0 kmh 29.59 in1002.0 mb 0.00 in0.0 mm 0.00 in0.0 mm 0.00 in0.0 mm
02:54 PM 68.7°F20.4°C 47.1°F8.4°C 46% 2.9 mph W4.7 kmh W 2.9 mph4.7 kmh 29.59 in1002.0 mb 0.00 in0.0 mm 0.00 in0.0 mm 0.00 in0.0 mm
02:59 PM 68.7°F20.4°C 47.1°F8.4°C 46% Calm Calm 5.8 mph9.3 kmh 29.59 in1002.0 mb 0.00 in0.0 mm 0.00 in0.0 mm 0.00 in0.0 mm
03:04 PM 68.2°F20.1°C 47.2°F8.4°C 47% 5.8 mph W9.3 kmh W 5.8 mph9.3 kmh 29.59 in1002.0 mb 0.00 in0.0 mm 0.00 in0.0 mm 0.00 in0.0 mm
03:09 PM 67.1°F19.5°C 47.3°F8.5°C 49% 7.8 mph W12.6 kmh W 7.8 mph12.6 kmh 29.59 in1002.0 mb 0.00 in0.0 mm 0.00 in0.0 mm 0.00 in0.0 mm
03:14 PM 66.4°F19.1°C 47.2°F8.4°C 50% 3.4 mph W5.5 kmh W 7.8 mph12.6 kmh 29.59 in1002.0 mb 0.00 in0.0 mm 0.00 in0.0 mm 0.00 in0.0 mm
03:19 PM 65.8°F18.8°C 47.2°F8.4°C 51% 2.0 mph W3.2 kmh W 4.0 mph6.4 kmh 29.59 in1002.0 mb 0.00 in0.0 mm 0.00 in0.0 mm 0.00 in0.0 mm
03:24 PM 65.5°F18.6°C 47.4°F8.6°C 52% 3.1 mph W5.0 kmh W 3.1 mph5.0 kmh 29.59 in1002.0 mb 0.00 in0.0 mm 0.00 in0.0 mm 0.00 in0.0 mm
03:30 PM 65.3°F18.5°C 47.2°F8.4°C 52% 5.8 mph W9.3 kmh W 6.3 mph10.1 kmh 29.59 in1002.0 mb 0.00 in0.0 mm 0.00 in0.0 mm 0.00 in0.0 mm
03:35 PM 65.7°F18.7°C 47.1°F8.4°C 51% 3.1 mph W5.0 kmh W 5.8 mph9.3 kmh 29.59 in1002.0 mb 0.00 in0.0 mm 0.00 in0.0 mm 0.00 in0.0 mm
03:40 PM 66.0°F18.9°C 46.9°F8.3°C 50% 4.7 mph W7.6 kmh W 5.4 mph8.7 kmh 29.59 in1002.0 mb 0.00 in0.0 mm 0.00 in0.0 mm 0.00 in0.0 mm
03:44 PM 66.6°F19.2°C 46.3°F7.9°C 48% 4.7 mph W7.6 kmh W 4.7 mph7.6 kmh 29.59 in1002.0 mb 0.00 in0.0 mm 0.00 in0.0 mm 0.00 in0.0 mm
03:49 PM 66.7°F19.3°C 45.9°F7.7°C 47% 5.6 mph W9.0 kmh W 5.6 mph9.0 kmh 29.59 in1002.0 mb 0.00 in0.0 mm 0.00 in0.0 mm 0.00 in0.0 mm
03:54 PM 66.7°F19.3°C 45.9°F7.7°C 47% 2.2 mph WSW3.5 kmh WSW 3.6 mph5.8 kmh 29.59 in1002.0 mb 0.00 in0.0 mm 0.00 in0.0 mm 0.00 in0.0 mm
03:59 PM 66.7°F19.3°C 45.9°F7.7°C 47% Calm Calm 2.9 mph4.7 kmh 29.62 in1003.0 mb 0.00 in0.0 mm 0.00 in0.0 mm 0.00 in0.0 mm
04:04 PM 66.7°F19.3°C 46.5°F8.1°C 48% 2.9 mph WSW4.7 kmh WSW 3.4 mph5.5 kmh 29.62 in1003.0 mb 0.00 in0.0 mm 0.00 in0.0 mm 0.00 in0.0 mm
04:09 PM 66.4°F19.1°C 46.7°F8.2°C 49% Calm Calm -- 29.62 in1003.0 mb 0.00 in0.0 mm 0.00 in0.0 mm 0.00 in0.0 mm
04:14 PM 66.2°F19.0°C 46.5°F8.1°C 49% 3.6 mph W5.8 kmh W 3.6 mph5.8 kmh 29.59 in1002.0 mb 0.00 in0.0 mm 0.00 in0.0 mm 0.00 in0.0 mm
04:19 PM 65.8°F18.8°C 47.2°F8.4°C 51% 3.4 mph W5.5 kmh W 3.6 mph5.8 kmh 29.59 in1002.0 mb 0.00 in0.0 mm 0.00 in0.0 mm 0.00 in0.0 mm
04:24 PM 65.7°F18.7°C 47.1°F8.4°C 51% 3.8 mph WSW6.1 kmh WSW 3.8 mph6.1 kmh 29.59 in1002.0 mb 0.00 in0.0 mm 0.00 in0.0 mm 0.00 in0.0 mm
04:30 PM 65.7°F18.7°C 47.1°F8.4°C 51% 5.8 mph WSW9.3 kmh WSW 6.0 mph9.7 kmh 29.59 in1002.0 mb 0.00 in0.0 mm 0.00 in0.0 mm 0.00 in0.0 mm
04:35 PM 65.7°F18.7°C 47.1°F8.4°C 51% 3.4 mph W5.5 kmh W 5.8 mph9.3 kmh 29.59 in1002.0 mb 0.00 in0.0 mm 0.00 in0.0 mm 0.00 in0.0 mm
04:40 PM 65.8°F18.8°C 46.7°F8.2°C 50% 3.1 mph WSW5.0 kmh WSW 4.3 mph6.9 kmh 29.59 in1002.0 mb 0.00 in0.0 mm 0.00 in0.0 mm 0.00 in0.0 mm
04:44 PM 66.0°F18.9°C 46.9°F8.3°C 50% 5.4 mph W8.7 kmh W 7.2 mph11.6 kmh 29.59 in1002.0 mb 0.00 in0.0 mm 0.00 in0.0 mm 0.00 in0.0 mm
04:49 PM 66.2°F19.0°C 46.5°F8.1°C 49% 1.1 mph W1.8 kmh W 4.9 mph7.9 kmh 29.59 in1002.0 mb 0.00 in0.0 mm 0.00 in0.0 mm 0.00 in0.0 mm
04:54 PM 66.2°F19.0°C 46.5°F8.1°C 49% 1.1 mph NE1.8 kmh NE 6.0 mph9.7 kmh 29.59 in1002.0 mb 0.00 in0.0 mm 0.00 in0.0 mm 0.00 in0.0 mm
04:59 PM 66.2°F19.0°C 46.5°F8.1°C 49% 8.1 mph W13.0 kmh W 8.1 mph13.0 kmh 29.59 in1002.0 mb 0.00 in0.0 mm 0.00 in0.0 mm 0.00 in0.0 mm
05:04 PM 66.2°F19.0°C 46.5°F8.1°C 49% 4.3 mph WSW6.9 kmh WSW 8.1 mph13.0 kmh 29.59 in1002.0 mb 0.00 in0.0 mm 0.00 in0.0 mm 0.00 in0.0 mm
05:09 PM 66.0°F18.9°C 46.9°F8.3°C 50% 1.3 mph W2.1 kmh W 6.3 mph10.1 kmh 29.59 in1002.0 mb 0.00 in0.0 mm 0.00 in0.0 mm 0.00 in0.0 mm
05:14 PM 66.0°F18.9°C 46.9°F8.3°C 50% 3.8 mph WSW6.1 kmh WSW 4.3 mph6.9 kmh 29.59 in1002.0 mb 0.00 in0.0 mm 0.00 in0.0 mm 0.00 in0.0 mm
05:19 PM 65.8°F18.8°C 46.7°F8.2°C 50% 3.8 mph WSW6.1 kmh WSW 3.8 mph6.1 kmh 29.59 in1002.0 mb 0.00 in0.0 mm 0.00 in0.0 mm 0.00 in0.0 mm
05:24 PM 65.8°F18.8°C 46.7°F8.2°C 50% 2.0 mph W3.2 kmh W 3.8 mph6.1 kmh 29.59 in1002.0 mb 0.00 in0.0 mm 0.00 in0.0 mm 0.00 in0.0 mm
05:30 PM 65.7°F18.7°C 46.5°F8.1°C 50% Calm Calm 2.0 mph3.2 kmh 29.59 in1002.0 mb 0.00 in0.0 mm 0.00 in0.0 mm 0.00 in0.0 mm
05:35 PM 65.1°F18.4°C 47.1°F8.4°C 52% 2.9 mph W4.7 kmh W 2.9 mph4.7 kmh 29.59 in1002.0 mb 0.00 in0.0 mm 0.00 in0.0 mm 0.00 in0.0 mm
05:40 PM 64.4°F18.0°C 46.9°F8.3°C 53% Calm Calm 2.9 mph4.7 kmh 29.59 in1002.0 mb 0.00 in0.0 mm 0.00 in0.0 mm 0.00 in0.0 mm
05:44 PM 64.0°F17.8°C 47.1°F8.4°C 54% 3.1 mph WSW5.0 kmh WSW 3.1 mph5.0 kmh 29.59 in1002.0 mb 0.00 in0.0 mm 0.00 in0.0 mm 0.00 in0.0 mm
05:49 PM 63.5°F17.5°C 48.0°F8.9°C 57% 2.5 mph WSW4.0 kmh WSW 3.4 mph5.5 kmh 29.59 in1002.0 mb 0.00 in0.0 mm 0.00 in0.0 mm 0.00 in0.0 mm
05:54 PM 63.1°F17.3°C 48.1°F8.9°C 58% 2.7 mph W4.3 kmh W 2.7 mph4.3 kmh 29.59 in1002.0 mb 0.00 in0.0 mm 0.00 in0.0 mm 0.00 in0.0 mm
05:59 PM 63.0°F17.2°C 48.4°F9.1°C 59% Calm Calm 2.5 mph4.0 kmh 29.59 in1002.0 mb 0.00 in0.0 mm 0.00 in0.0 mm 0.00 in0.0 mm
06:04 PM 62.8°F17.1°C 49.2°F9.6°C 61% Calm Calm 0.9 mph1.4 kmh 29.59 in1002.0 mb 0.00 in0.0 mm 0.00 in0.0 mm 0.00 in0.0 mm
06:09 PM 62.6°F17.0°C 49.4°F9.7°C 62% Calm Calm 2.5 mph4.0 kmh 29.59 in1002.0 mb 0.00 in0.0 mm 0.00 in0.0 mm 0.00 in0.0 mm
06:14 PM 62.4°F16.9°C 49.7°F9.8°C 63% 3.6 mph W5.8 kmh W 3.6 mph5.8 kmh 29.59 in1002.0 mb 0.00 in0.0 mm 0.00 in0.0 mm 0.00 in0.0 mm
06:19 PM 62.2°F16.8°C 49.9°F9.9°C 64% 1.6 mph W2.6 kmh W 3.6 mph5.8 kmh 29.59 in1002.0 mb 0.00 in0.0 mm 0.00 in0.0 mm 0.00 in0.0 mm
06:24 PM 62.2°F16.8°C 49.9°F9.9°C 64% 1.1 mph W1.8 kmh W 2.5 mph4.0 kmh 29.59 in1002.0 mb 0.00 in0.0 mm 0.00 in0.0 mm 0.00 in0.0 mm
06:30 PM 62.2°F16.8°C 50.3°F10.2°C 65% 1.6 mph WSW2.6 kmh WSW 1.6 mph2.6 kmh 29.56 in1001.0 mb 0.00 in0.0 mm 0.00 in0.0 mm 0.00 in0.0 mm
06:35 PM 62.2°F16.8°C 50.3°F10.2°C 65% 4.7 mph WSW7.6 kmh WSW 4.7 mph7.6 kmh 29.56 in1001.0 mb 0.00 in0.0 mm 0.00 in0.0 mm 0.00 in0.0 mm
06:40 PM 62.2°F16.8°C 50.3°F10.2°C 65% 2.2 mph W3.5 kmh W 4.7 mph7.6 kmh 29.56 in1001.0 mb 0.00 in0.0 mm 0.00 in0.0 mm 0.00 in0.0 mm
06:44 PM 62.2°F16.8°C 50.3°F10.2°C 65% 2.2 mph W3.5 kmh W 2.2 mph3.5 kmh 29.59 in1002.0 mb 0.00 in0.0 mm 0.00 in0.0 mm 0.00 in0.0 mm
06:49 PM 62.8°F17.1°C 50.4°F10.2°C 64% 2.2 mph W3.5 kmh W 2.2 mph3.5 kmh 29.59 in1002.0 mb 0.00 in0.0 mm 0.00 in0.0 mm 0.00 in0.0 mm
06:54 PM 63.1°F17.3°C 49.9°F9.9°C 62% 2.2 mph W3.5 kmh W 2.2 mph3.5 kmh 29.59 in1002.0 mb 0.00 in0.0 mm 0.00 in0.0 mm 0.00 in0.0 mm
06:59 PM 63.3°F17.4°C 49.7°F9.8°C 61% 2.0 mph WSW3.2 kmh WSW 2.7 mph4.3 kmh 29.59 in1002.0 mb 0.00 in0.0 mm 0.00 in0.0 mm 0.00 in0.0 mm
07:04 PM 63.5°F17.5°C 49.4°F9.7°C 60% 1.3 mph W2.1 kmh W 4.0 mph6.4 kmh 29.59 in1002.0 mb 0.00 in0.0 mm 0.00 in0.0 mm 0.00 in0.0 mm
07:09 PM 63.7°F17.6°C 49.6°F9.8°C 60% 4.3 mph WSW6.9 kmh WSW 4.3 mph6.9 kmh 29.59 in1002.0 mb 0.00 in0.0 mm 0.00 in0.0 mm 0.00 in0.0 mm
07:14 PM 63.9°F17.7°C 49.3°F9.6°C 59% 2.9 mph W4.7 kmh W 10.7 mph17.2 kmh 29.59 in1002.0 mb 0.00 in0.0 mm 0.00 in0.0 mm 0.00 in0.0 mm
07:19 PM 63.9°F17.7°C 49.3°F9.6°C 59% 1.1 mph WNW1.8 kmh WNW 1.1 mph1.8 kmh 29.59 in1002.0 mb 0.00 in0.0 mm 0.00 in0.0 mm 0.00 in0.0 mm
07:24 PM 63.7°F17.6°C 49.1°F9.5°C 59% 4.3 mph W6.9 kmh W 4.3 mph6.9 kmh 29.59 in1002.0 mb 0.00 in0.0 mm 0.00 in0.0 mm 0.00 in0.0 mm
07:30 PM 63.7°F17.6°C 49.1°F9.5°C 59% 2.9 mph NE4.7 kmh NE 2.9 mph4.7 kmh 29.59 in1002.0 mb 0.00 in0.0 mm 0.00 in0.0 mm 0.00 in0.0 mm
07:35 PM 63.7°F17.6°C 49.1°F9.5°C 59% 6.0 mph NE9.7 kmh NE 6.0 mph9.7 kmh 29.59 in1002.0 mb 0.00 in0.0 mm 0.00 in0.0 mm 0.00 in0.0 mm
07:40 PM 63.7°F17.6°C 49.1°F9.5°C 59% Calm Calm 6.0 mph9.7 kmh 29.59 in1002.0 mb 0.00 in0.0 mm 0.00 in0.0 mm 0.00 in0.0 mm
07:43 PM 63.7°F17.6°C 49.1°F9.5°C 59% Calm Calm -- 29.59 in1002.0 mb 0.00 in0.0 mm 0.00 in0.0 mm 0.00 in0.0 mm
07:49 PM 63.1°F17.3°C 48.6°F9.2°C 59% Calm Calm -- 29.59 in1002.0 mb 0.00 in0.0 mm 0.00 in0.0 mm 0.00 in0.0 mm
07:54 PM 62.6°F17.0°C 48.5°F9.2°C 60% 1.1 mph N1.8 kmh N 1.1 mph1.8 kmh 29.59 in1002.0 mb 0.00 in0.0 mm 0.00 in0.0 mm 0.00 in0.0 mm
07:59 PM 62.1°F16.7°C 48.9°F9.4°C 62% 2.0 mph N3.2 kmh N 2.2 mph3.5 kmh 29.59 in1002.0 mb 0.00 in0.0 mm 0.00 in0.0 mm 0.00 in0.0 mm
08:03 PM 61.9°F16.6°C 49.6°F9.8°C 64% Calm Calm -- 29.59 in1002.0 mb 0.00 in0.0 mm 0.00 in0.0 mm 0.00 in0.0 mm
08:09 PM 61.3°F16.3°C 49.5°F9.7°C 65% Calm Calm 2.9 mph4.7 kmh 29.59 in1002.0 mb 0.00 in0.0 mm 0.00 in0.0 mm 0.00 in0.0 mm
08:14 PM 61.2°F16.2°C 49.7°F9.8°C 66% 2.2 mph WSW3.5 kmh WSW 2.9 mph4.7 kmh 29.59 in1002.0 mb 0.00 in0.0 mm 0.00 in0.0 mm 0.00 in0.0 mm
08:19 PM 61.2°F16.2°C 50.1°F10.1°C 67% 1.6 mph WNW2.6 kmh WNW 1.6 mph2.6 kmh 29.59 in1002.0 mb 0.00 in0.0 mm 0.00 in0.0 mm 0.00 in0.0 mm
08:23 PM 61.2°F16.2°C 50.1°F10.1°C 67% 1.6 mph WNW2.6 kmh WNW 1.6 mph2.6 kmh 29.59 in1002.0 mb 0.00 in0.0 mm 0.00 in0.0 mm 0.00 in0.0 mm
08:30 PM 61.2°F16.2°C 50.5°F10.3°C 68% 2.5 mph NE4.0 kmh NE 2.5 mph4.0 kmh 29.59 in1002.0 mb 0.00 in0.0 mm 0.00 in0.0 mm 0.00 in0.0 mm
08:35 PM 61.3°F16.3°C 51.1°F10.6°C 69% Calm Calm -- 29.59 in1002.0 mb 0.00 in0.0 mm 0.00 in0.0 mm 0.00 in0.0 mm
08:40 PM 61.3°F16.3°C 50.7°F10.4°C 68% Calm Calm -- 29.59 in1002.0 mb 0.00 in0.0 mm 0.00 in0.0 mm 0.00 in0.0 mm
08:45 PM 61.3°F16.3°C 50.7°F10.4°C 68% Calm Calm -- 29.59 in1002.0 mb 0.00 in0.0 mm 0.00 in0.0 mm 0.00 in0.0 mm
08:49 PM 61.3°F16.3°C 50.7°F10.4°C 68% Calm Calm -- 29.59 in1002.0 mb 0.00 in0.0 mm 0.00 in0.0 mm 0.00 in0.0 mm
08:54 PM 61.3°F16.3°C 50.7°F10.4°C 68% Calm Calm -- 29.59 in1002.0 mb 0.00 in0.0 mm 0.00 in0.0 mm 0.00 in0.0 mm
08:59 PM 61.3°F16.3°C 50.3°F10.2°C 67% Calm Calm -- 29.59 in1002.0 mb 0.00 in0.0 mm 0.00 in0.0 mm 0.00 in0.0 mm
09:04 PM 61.7°F16.5°C 50.6°F10.3°C 67% Calm Calm -- 29.59 in1002.0 mb 0.00 in0.0 mm 0.00 in0.0 mm 0.00 in0.0 mm
09:09 PM 61.7°F16.5°C 50.6°F10.3°C 67% Calm Calm -- 29.59 in1002.0 mb 0.00 in0.0 mm 0.00 in0.0 mm 0.00 in0.0 mm
09:14 PM 61.9°F16.6°C 50.4°F10.2°C 66% Calm Calm -- 29.59 in1002.0 mb 0.00 in0.0 mm 0.00 in0.0 mm 0.00 in0.0 mm
09:19 PM 62.4°F16.9°C 50.5°F10.3°C 65% Calm Calm -- 29.59 in1002.0 mb 0.00 in0.0 mm 0.00 in0.0 mm 0.00 in0.0 mm
09:24 PM 62.4°F16.9°C 50.5°F10.3°C 65% Calm Calm -- 29.59 in1002.0 mb 0.00 in0.0 mm 0.00 in0.0 mm 0.00 in0.0 mm
09:28 PM 62.6°F17.0°C 50.3°F10.2°C 64% 2.7 mph W4.3 kmh W 2.7 mph4.3 kmh 29.59 in1002.0 mb 0.00 in0.0 mm 0.00 in0.0 mm 0.00 in0.0 mm
09:35 PM 62.8°F17.1°C 50.0°F10.0°C 63% Calm Calm 3.1 mph5.0 kmh 29.59 in1002.0 mb 0.00 in0.0 mm 0.00 in0.0 mm 0.00 in0.0 mm
09:40 PM 62.6°F17.0°C 49.8°F9.9°C 63% 2.2 mph W3.5 kmh W 2.9 mph4.7 kmh 29.59 in1002.0 mb 0.00 in0.0 mm 0.00 in0.0 mm 0.00 in0.0 mm
09:45 PM 62.6°F17.0°C 49.8°F9.9°C 63% 2.0 mph W3.2 kmh W 2.7 mph4.3 kmh 29.62 in1003.0 mb 0.00 in0.0 mm 0.00 in0.0 mm 0.00 in0.0 mm
09:49 PM 62.6°F17.0°C 49.8°F9.9°C 63% 2.2 mph W3.5 kmh W 2.2 mph3.5 kmh 29.62 in1003.0 mb 0.00 in0.0 mm 0.00 in0.0 mm 0.00 in0.0 mm
09:54 PM 62.8°F17.1°C 50.0°F10.0°C 63% Calm Calm 2.2 mph3.5 kmh 29.62 in1003.0 mb 0.00 in0.0 mm 0.00 in0.0 mm 0.00 in0.0 mm
09:59 PM 63.0°F17.2°C 49.8°F9.9°C 62% Calm Calm 5.4 mph8.7 kmh 29.62 in1003.0 mb 0.00 in0.0 mm 0.00 in0.0 mm 0.00 in0.0 mm
10:04 PM 63.0°F17.2°C 49.8°F9.9°C 62% Calm Calm 2.9 mph4.7 kmh 29.62 in1003.0 mb 0.00 in0.0 mm 0.00 in0.0 mm 0.00 in0.0 mm
10:09 PM 63.1°F17.3°C 49.5°F9.7°C 61% 0.9 mph NW1.4 kmh NW 3.8 mph6.1 kmh 29.62 in1003.0 mb 0.00 in0.0 mm 0.00 in0.0 mm 0.00 in0.0 mm
10:14 PM 63.5°F17.5°C 49.8°F9.9°C 61% 1.6 mph NNE2.6 kmh NNE 3.4 mph5.5 kmh 29.62 in1003.0 mb 0.00 in0.0 mm 0.00 in0.0 mm 0.00 in0.0 mm
10:19 PM 63.5°F17.5°C 49.4°F9.7°C 60% 1.3 mph WNW2.1 kmh WNW 3.1 mph5.0 kmh 29.62 in1003.0 mb 0.00 in0.0 mm 0.00 in0.0 mm 0.00 in0.0 mm
10:24 PM 63.5°F17.5°C 49.4°F9.7°C 60% 3.1 mph W5.0 kmh W 3.1 mph5.0 kmh 29.62 in1003.0 mb 0.00 in0.0 mm 0.00 in0.0 mm 0.00 in0.0 mm
10:29 PM 63.5°F17.5°C 49.4°F9.7°C 60% Calm Calm 4.0 mph6.4 kmh 29.62 in1003.0 mb 0.00 in0.0 mm 0.00 in0.0 mm 0.00 in0.0 mm
10:35 PM 63.5°F17.5°C 49.4°F9.7°C 60% Calm Calm 4.0 mph6.4 kmh 29.62 in1003.0 mb 0.00 in0.0 mm 0.00 in0.0 mm 0.00 in0.0 mm
10:40 PM 63.5°F17.5°C 49.4°F9.7°C 60% 2.5 mph W4.0 kmh W 2.7 mph4.3 kmh 29.62 in1003.0 mb 0.00 in0.0 mm 0.00 in0.0 mm 0.00 in0.0 mm
10:45 PM 63.3°F17.4°C 49.2°F9.6°C 60% 3.4 mph WNW5.5 kmh WNW 3.4 mph5.5 kmh 29.62 in1003.0 mb 0.00 in0.0 mm 0.00 in0.0 mm 0.00 in0.0 mm
10:49 PM 63.3°F17.4°C 49.2°F9.6°C 60% 2.9 mph WSW4.7 kmh WSW 3.4 mph5.5 kmh 29.62 in1003.0 mb 0.00 in0.0 mm 0.00 in0.0 mm 0.00 in0.0 mm
10:54 PM 63.3°F17.4°C 49.2°F9.6°C 60% 1.3 mph NW2.1 kmh NW 2.9 mph4.7 kmh 29.62 in1003.0 mb 0.00 in0.0 mm 0.00 in0.0 mm 0.00 in0.0 mm
10:59 PM 63.1°F17.3°C 49.0°F9.4°C 60% 4.3 mph WSW6.9 kmh WSW 4.3 mph6.9 kmh 29.62 in1003.0 mb 0.00 in0.0 mm 0.00 in0.0 mm 0.00 in0.0 mm
11:04 PM 63.1°F17.3°C 49.0°F9.4°C 60% 4.0 mph NW6.4 kmh NW 4.0 mph6.4 kmh 29.62 in1003.0 mb 0.00 in0.0 mm 0.00 in0.0 mm 0.00 in0.0 mm
11:09 PM 63.1°F17.3°C 49.0°F9.4°C 60% 3.1 mph WSW5.0 kmh WSW 6.3 mph10.1 kmh 29.62 in1003.0 mb 0.00 in0.0 mm 0.00 in0.0 mm 0.00 in0.0 mm
11:14 PM 63.0°F17.2°C 48.9°F9.4°C 60% Calm Calm 2.5 mph4.0 kmh 29.62 in1003.0 mb 0.00 in0.0 mm 0.00 in0.0 mm 0.00 in0.0 mm
11:19 PM 63.0°F17.2°C 48.9°F9.4°C 60% 2.9 mph SW4.7 kmh SW 2.9 mph4.7 kmh 29.62 in1003.0 mb 0.00 in0.0 mm 0.00 in0.0 mm 0.00 in0.0 mm
11:24 PM 63.0°F17.2°C 48.9°F9.4°C 60% 3.8 mph WSW6.1 kmh WSW 3.8 mph6.1 kmh 29.62 in1003.0 mb 0.00 in0.0 mm 0.00 in0.0 mm 0.00 in0.0 mm
11:29 PM 63.0°F17.2°C 48.9°F9.4°C 60% 0.9 mph N1.4 kmh N 2.5 mph4.0 kmh 29.62 in1003.0 mb 0.00 in0.0 mm 0.00 in0.0 mm 0.00 in0.0 mm
11:35 PM 63.0°F17.2°C 48.9°F9.4°C 60% 2.0 mph W3.2 kmh W 2.9 mph4.7 kmh 29.62 in1003.0 mb 0.00 in0.0 mm 0.00 in0.0 mm 0.00 in0.0 mm
11:40 PM 63.0°F17.2°C 48.9°F9.4°C 60% 4.0 mph WSW6.4 kmh WSW 4.0 mph6.4 kmh 29.62 in1003.0 mb 0.00 in0.0 mm 0.00 in0.0 mm 0.00 in0.0 mm
11:45 PM 63.1°F17.3°C 49.5°F9.7°C 61% 2.9 mph WSW4.7 kmh WSW 4.9 mph7.9 kmh 29.62 in1003.0 mb 0.00 in0.0 mm 0.00 in0.0 mm 0.00 in0.0 mm
11:49 PM 63.1°F17.3°C 49.5°F9.7°C 61% 0.9 mph S1.4 kmh S 2.9 mph4.7 kmh 29.62 in1003.0 mb 0.00 in0.0 mm 0.00 in0.0 mm 0.00 in0.0 mm
11:54 PM 63.0°F17.2°C 49.3°F9.6°C 61% 1.6 mph W2.6 kmh W 3.6 mph5.8 kmh 29.62 in1003.0 mb 0.00 in0.0 mm 0.00 in0.0 mm 0.00 in0.0 mm
11:59 PM 63.0°F17.2°C 49.3°F9.6°C 61% 2.7 mph W4.3 kmh W 3.8 mph6.1 kmh 29.62 in1003.0 mb 0.00 in0.0 mm 0.00 in0.0 mm 0.00 in0.0 mm